Time;durP1;ratioP1;P1;durP2;ratioP2;P2;SDS_P1;SDS_P2;PMS_P1;PMS_P2;Temp;Humidity;BMP_temperature;BMP_pressure;BME280_temperature;BME280_humidity;BME280_pressure;Samples;Min_cycle;Max_cycle;Signal;HPM_P1;HPM_P2
2022/06/03 00:02:06;;;;;;;6.27;2.43;;;;;;;13.65;69.96;101407.09;5094474;28;20410;-67
2022/06/03 00:05:03;;;;;;;2.55;2.35;;;;;;;13.67;70.46;101423.81;5094384;28;20079;-67
2022/06/03 00:07:44;;;;;;;3.50;2.70;;;;;;;13.60;70.63;101423.66;5094648;28;20031;-67
2022/06/03 00:10:21;;;;;;;3.77;3.33;;;;;;;13.61;70.95;101430.69;5094286;28;20052;-67
2022/06/03 00:12:49;;;;;;;3.07;2.40;;;;;;;13.59;70.94;101422.00;5095042;28;20090;-67
2022/06/03 00:15:20;;;;;;;5.95;2.38;;;;;;;13.57;70.86;101433.84;5095118;28;20032;-66
2022/06/03 00:18:13;;;;;;;2.40;2.20;;;;;;;13.53;71.06;101435.16;5094594;28;20065;-67
2022/06/03 00:21:02;;;;;;;3.23;2.23;;;;;;;13.49;70.82;101429.31;5094862;28;20047;-66
2022/06/03 00:23:27;;;;;;;2.80;2.60;;;;;;;13.44;71.39;101422.78;5095883;28;20103;-67
2022/06/03 00:26:30;;;;;;;2.60;2.40;;;;;;;13.41;71.78;101417.78;5094900;28;20150;-66
2022/06/03 00:29:07;;;;;;;7.53;1.90;;;;;;;13.34;71.65;101406.91;5093169;28;20557;-68
2022/06/03 00:32:14;;;;;;;3.80;1.87;;;;;;;13.31;72.01;101410.75;5092914;28;20044;-68
2022/06/03 00:35:01;;;;;;;2.30;2.10;;;;;;;13.25;71.52;101402.50;5092661;28;20471;-66
2022/06/03 00:37:38;;;;;;;2.50;2.30;;;;;;;13.25;71.81;101414.06;5093095;28;20043;-68
2022/06/03 00:40:38;;;;;;;2.22;2.00;;;;;;;13.19;72.12;101425.41;5092845;28;20055;-67
2022/06/03 00:43:40;;;;;;;3.07;2.77;;;;;;;13.08;73.13;101433.72;5092607;28;20043;-68
2022/06/03 00:46:18;;;;;;;3.70;2.70;;;;;;;12.96;73.25;101440.34;5085259;28;20180;-66
2022/06/03 00:48:56;;;;;;;3.08;2.47;;;;;;;12.90;72.92;101411.59;5093707;28;20119;-67
2022/06/03 00:51:33;;;;;;;2.97;2.47;;;;;;;12.91;73.25;101405.25;5093511;28;20044;-68
2022/06/03 00:54:23;;;;;;;2.50;2.30;;;;;;;12.95;73.18;101406.59;5093770;28;20040;-66
2022/06/03 00:56:54;;;;;;;2.60;2.40;;;;;;;12.97;72.96;101420.63;5093486;28;20051;-66
2022/06/03 00:59:56;;;;;;;3.10;2.30;;;;;;;12.99;72.95;101422.13;5093252;28;20387;-65
2022/06/03 01:02:37;;;;;;;3.63;2.80;;;;;;;12.88;73.35;101417.09;5093331;28;20406;-66
2022/06/03 01:05:24;;;;;;;4.00;2.77;;;;;;;12.88;73.58;101418.94;5093479;28;20363;-67
2022/06/03 01:07:50;;;;;;;3.10;2.20;;;;;;;12.79;73.45;101410.06;5093615;28;20092;-67
2022/06/03 01:10:40;;;;;;;4.40;2.50;;;;;;;12.78;73.36;101419.06;5093547;28;20064;-67
2022/06/03 01:13:39;;;;;;;2.93;2.30;;;;;;;12.71;73.49;101413.50;5092859;28;20052;-66
2022/06/03 01:16:26;;;;;;;4.40;1.90;;;;;;;12.67;73.27;101417.50;5092632;28;20048;-66
2022/06/03 01:19:23;;;;;;;7.33;2.20;;;;;;;12.56;73.37;101414.28;5092800;28;20042;-67
2022/06/03 01:22:26;;;;;;;2.78;2.40;;;;;;;12.57;73.64;101408.78;5093054;28;20036;-67
2022/06/03 01:25:17;;;;;;;4.87;2.30;;;;;;;12.53;74.18;101399.41;5092986;28;20122;-67
2022/06/03 01:27:56;;;;;;;4.90;2.43;;;;;;;12.56;73.80;101395.59;5092677;28;20046;-66
2022/06/03 01:30:40;;;;;;;4.70;2.90;;;;;;;12.59;73.84;101395.25;5092790;28;20067;-66
2022/06/03 01:33:20;;;;;;;5.13;2.13;;;;;;;12.61;73.69;101393.25;5092789;28;20059;-66
2022/06/03 01:35:48;;;;;;;2.83;2.20;;;;;;;12.67;73.25;101393.44;5092684;28;20032;-67
2022/06/03 01:38:37;;;;;;;2.17;1.98;;;;;;;12.73;73.48;101393.84;5092699;28;20032;-67
2022/06/03 01:41:55;;;;;;;3.33;2.27;;;;;;;12.76;72.31;101380.16;5092425;28;20055;-66
2022/06/03 01:44:45;;;;;;;2.57;2.07;;;;;;;12.73;72.04;101375.97;5092217;28;20443;-66
2022/06/03 01:48:01;;;;;;;2.27;2.03;;;;;;;12.74;71.55;101385.66;5092527;28;20088;-68
2022/06/03 01:50:45;;;;;;;2.80;2.50;;;;;;;12.74;71.36;101387.50;5092228;28;20077;-66
2022/06/03 01:53:32;;;;;;;2.77;2.50;;;;;;;12.74;70.67;101393.66;5092599;28;20043;-67
2022/06/03 01:56:21;;;;;;;3.37;2.53;;;;;;;12.71;71.49;101397.47;5092972;28;20078;-67
2022/06/03 01:59:19;;;;;;;2.27;1.97;;;;;;;12.75;70.94;101407.88;5050649;28;20506;-67
2022/06/03 02:02:09;;;;;;;2.65;2.10;;;;;;;12.83;71.29;101403.38;5092279;28;20396;-67
2022/06/03 02:05:12;;;;;;;4.17;2.90;;;;;;;12.90;70.63;101404.41;5092083;28;20039;-67
2022/06/03 02:07:59;;;;;;;2.43;2.07;;;;;;;12.96;69.72;101413.59;5093100;28;20036;-67
2022/06/03 02:11:01;;;;;;;2.87;2.57;;;;;;;13.02;70.21;101413.81;5092449;28;20056;-67
2022/06/03 02:13:33;;;;;;;5.83;2.70;;;;;;;13.05;69.96;101418.00;5091987;28;20104;-67
2022/06/03 02:16:30;;;;;;;2.60;2.20;;;;;;;13.09;70.14;101413.16;5092208;28;20057;-68
2022/06/03 02:19:20;;;;;;;4.68;2.20;;;;;;;13.10;69.84;101401.47;5092285;28;20040;-67
2022/06/03 02:21:53;;;;;;;3.10;2.50;;;;;;;13.09;70.48;101397.94;5091840;28;20495;-67
2022/06/03 02:24:55;;;;;;;3.67;2.30;;;;;;;13.00;70.10;101409.59;5092182;28;20077;-67
2022/06/03 02:27:20;;;;;;;3.50;2.60;;;;;;;12.85;70.05;101403.22;5095490;28;20123;-67
2022/06/03 02:33:03;;;;;;;3.67;2.30;;;;;;;12.72;70.65;101400.97;5096202;28;20036;-68
2022/06/03 02:35:43;;;;;;;2.70;2.23;;;;;;;12.75;70.85;101410.53;5096142;28;20024;-67
2022/06/03 02:38:30;;;;;;;2.80;2.50;;;;;;;12.79;69.82;101409.22;5096075;28;20394;-65
2022/06/03 02:41:19;;;;;;;4.10;2.97;;;;;;;12.82;69.70;101406.22;5096340;28;20032;-66
2022/06/03 02:44:02;;;;;;;2.60;2.40;;;;;;;12.99;69.28;101414.13;5096052;28;20406;-67
2022/06/03 02:46:27;;;;;;;5.70;2.20;;;;;;;13.10;69.05;101402.31;5095961;28;20067;-67
2022/06/03 02:49:22;;;;;;;3.37;2.90;;;;;;;13.25;68.07;101414.06;5095527;28;20028;-65
2022/06/03 02:52:03;;;;;;;3.67;2.50;;;;;;;13.51;67.00;101418.44;5059455;28;20044;-66
2022/06/03 02:54:37;;;;;;;3.97;2.50;;;;;;;13.81;65.63;101423.13;5095882;28;20394;-65
2022/06/03 02:57:30;;;;;;;3.20;2.80;;;;;;;13.95;64.20;101411.78;5095573;28;20406;-66
2022/06/03 03:00:13;;;;;;;3.07;2.87;;;;;;;13.77;64.21;101404.91;5095668;28;20093;-66
2022/06/03 03:03:00;;;;;;;3.30;2.67;;;;;;;13.86;64.49;101419.97;5095607;28;20042;-67
2022/06/03 03:05:32;;;;;;;4.00;2.23;;;;;;;13.84;64.08;101424.66;5095461;28;20135;-67
2022/06/03 03:08:17;;;;;;;3.47;2.63;;;;;;;14.03;63.76;101412.75;5095452;28;20067;-67
2022/06/03 03:10:54;;;;;;;3.33;2.30;;;;;;;14.33;62.93;101419.25;5095365;28;20056;-67
2022/06/03 03:13:23;;;;;;;4.60;2.30;;;;;;;14.60;61.33;101426.91;5095611;28;20052;-67
2022/06/03 03:15:48;;;;;;;3.17;2.58;;;;;;;14.93;59.94;101422.25;5093769;28;20473;-67
2022/06/03 03:18:32;;;;;;;3.23;2.27;;;;;;;14.83;60.80;101411.75;5095488;28;20036;-66
2022/06/03 03:21:07;;;;;;;4.60;2.53;;;;;;;14.46;61.93;101420.44;5095265;28;20040;-67
2022/06/03 03:23:38;;;;;;;3.00;2.20;;;;;;;13.97;62.85;101414.28;5095130;28;20035;-67
2022/06/03 03:26:40;;;;;;;8.77;2.20;;;;;;;13.73;63.96;101417.78;5095202;28;20028;-68
2022/06/03 03:29:17;;;;;;;5.30;2.40;;;;;;;13.48;64.54;101414.25;5095181;28;20490;-67
2022/06/03 03:31:55;;;;;;;9.17;2.87;;;;;;;13.30;65.51;101426.97;5094753;28;20036;-66
2022/06/03 03:34:27;;;;;;;2.95;2.33;;;;;;;13.92;63.05;101428.19;5094907;28;20032;-66
2022/06/03 03:37:19;;;;;;;3.40;2.50;;;;;;;15.28;59.22;101430.75;5094768;28;20035;-65
2022/06/03 03:40:03;;;;;;;5.07;2.70;;;;;;;16.32;56.65;101424.75;5095480;28;20070;-66
2022/06/03 03:42:29;;;;;;;3.73;2.80;;;;;;;17.29;53.75;101430.78;5094802;28;20032;-66
2022/06/03 03:45:23;;;;;;;8.23;2.60;;;;;;;18.12;51.26;101430.16;5093392;28;20046;-66
2022/06/03 03:48:07;;;;;;;2.63;2.17;;;;;;;18.16;50.94;101434.13;5094781;28;20039;-66
2022/06/03 03:50:57;;;;;;;3.53;2.40;;;;;;;17.58;52.65;101428.00;5094690;28;20035;-67
2022/06/03 03:53:47;;;;;;;4.03;2.20;;;;;;;17.37;53.75;101425.31;5094516;28;20487;-67
2022/06/03 03:56:34;;;;;;;6.50;2.50;;;;;;;17.16;55.15;101425.28;5094957;28;20088;-65
2022/06/03 03:59:18;;;;;;;4.43;2.10;;;;;;;17.71;53.47;101432.72;5094401;28;20035;-66
2022/06/03 04:02:11;;;;;;;2.53;2.30;;;;;;;17.54;53.26;101432.09;5094210;28;20123;-70
2022/06/03 04:05:14;;;;;;;6.63;2.40;;;;;;;17.94;53.34;101427.97;5094690;28;20039;-67
2022/06/03 04:08:07;;;;;;;2.20;2.00;;;;;;;17.57;52.45;101426.34;5094268;28;20376;-67
2022/06/03 04:11:06;;;;;;;3.83;2.13;;;;;;;18.06;51.49;101430.13;5094013;28;20056;-68
2022/06/03 04:13:50;;;;;;;2.67;2.30;;;;;;;18.55;50.10;101419.25;5094098;28;20465;-67
2022/06/03 04:16:53;;;;;;;2.53;1.90;;;;;;;19.80;47.57;101424.28;5093998;28;20046;-67
2022/06/03 04:19:29;;;;;;;3.37;2.33;;;;;;;19.95;46.50;101419.50;5094095;28;20047;-66
2022/06/03 04:22:10;;;;;;;3.13;2.10;;;;;;;20.03;46.25;101413.88;5094123;28;20440;-66
2022/06/03 04:24:58;;;;;;;4.23;3.63;;;;;;;21.26;43.10;101420.22;5093963;28;20047;-66
2022/06/03 04:27:40;;;;;;;2.85;2.28;;;;;;;22.10;41.58;101432.56;5094073;28;20040;-68
2022/06/03 04:30:23;;;;;;;3.30;3.00;;;;;;;21.54;43.07;101429.84;5092691;28;20132;-66
2022/06/03 04:33:22;;;;;;;4.10;2.23;;;;;;;21.38;41.87;101433.06;5093647;28;20028;-67
2022/06/03 04:36:14;;;;;;;3.20;2.90;;;;;;;19.59;45.92;101443.38;5093887;28;20126;-66
2022/06/03 04:39:10;;;;;;;4.03;1.97;;;;;;;18.01;49.43;101444.19;5093675;28;20081;-67
2022/06/03 04:41:57;;;;;;;6.27;3.20;;;;;;;18.37;49.85;101448.59;5094821;28;20036;-66
2022/06/03 04:44:41;;;;;;;2.37;1.90;;;;;;;18.90;48.06;101449.78;5094137;28;20047;-67
2022/06/03 04:47:34;;;;;;;2.20;2.00;;;;;;;17.88;50.67;101449.44;5093497;28;20040;-68
2022/06/03 04:50:27;;;;;;;3.40;2.03;;;;;;;17.68;51.40;101453.84;5092186;28;20518;-68
2022/06/03 04:52:59;;;;;;;2.87;2.50;;;;;;;17.48;52.13;101459.81;5093246;28;20038;-68
2022/06/03 04:55:36;;;;;;;2.90;2.37;;;;;;;16.73;54.21;101452.88;5091739;28;20039;-67
2022/06/03 04:58:36;;;;;;;2.60;2.40;;;;;;;16.95;53.67;101463.72;5093613;28;20067;-67
2022/06/03 05:01:27;;;;;;;3.07;2.87;;;;;;;17.93;51.27;101452.41;5092984;28;20127;-69
2022/06/03 05:03:58;;;;;;;2.87;2.50;;;;;;;19.61;48.27;101465.59;5092831;28;20477;-66
2022/06/03 05:06:42;;;;;;;3.33;2.33;;;;;;;20.11;45.25;101465.03;5092546;28;20036;-64
2022/06/03 05:10:03;;;;;;;3.27;2.27;;;;;;;20.66;44.07;101453.97;5093359;28;20448;-67
2022/06/03 05:12:50;;;;;;;2.47;2.27;;;;;;;20.85;44.26;101450.38;5092162;28;20083;-67
2022/06/03 05:15:43;;;;;;;3.43;3.13;;;;;;;20.42;44.75;101455.47;5092913;28;20063;-68
2022/06/03 05:18:26;;;;;;;4.90;2.40;;;;;;;20.13;45.19;101455.88;5091837;28;20190;-69
2022/06/03 05:21:18;;;;;;;2.10;1.80;;;;;;;19.00;49.25;101476.38;5094122;28;20078;-71
2022/06/03 05:24:02;;;;;;;2.60;1.60;;;;;;;17.75;50.88;101470.88;5093032;28;20114;-72
2022/06/03 05:27:05;;;;;;;2.20;1.80;;;;;;;16.76;54.07;101465.13;5094601;28;20047;-68
2022/06/03 05:29:49;;;;;;;5.07;1.80;;;;;;;16.17;56.52;101458.81;5094414;28;20555;-71
2022/06/03 05:32:24;;;;;;;3.50;1.80;;;;;;;16.03;56.59;101457.78;5095412;28;20032;-70
2022/06/03 05:34:49;;;;;;;4.63;1.67;;;;;;;15.93;56.84;101457.22;5092911;28;20050;-69
2022/06/03 05:37:30;;;;;;;2.83;1.70;;;;;;;15.91;57.09;101459.25;5091846;28;20028;-69
2022/06/03 05:40:10;;;;;;;3.73;2.20;;;;;;;15.81;58.30;101464.84;5096723;28;20032;-76
2022/06/03 05:42:57;;;;;;;2.70;2.50;;;;;;;15.83;59.34;101472.72;5095203;28;20184;-69
2022/06/03 05:45:45;;;;;;;3.77;2.17;;;;;;;16.22;58.48;101480.63;5092804;28;20055;-72
2022/06/03 05:48:36;;;;;;;4.13;1.83;;;;;;;16.07;57.40;101464.47;5092996;28;20177;-71
2022/06/03 05:51:42;;;;;;;2.20;2.00;;;;;;;16.09;57.06;101482.06;5093092;28;20039;-72
2022/06/03 05:54:20;;;;;;;2.00;1.73;;;;;;;16.27;56.41;101488.97;5095553;28;20032;-70
2022/06/03 05:57:08;;;;;;;3.27;2.00;;;;;;;16.28;56.68;101477.22;5092999;28;20104;-69
2022/06/03 05:59:36;;;;;;;1.95;1.75;;;;;;;16.16;57.11;101479.47;5092857;28;20039;-74
2022/06/03 06:02:35;;;;;;;2.50;1.95;;;;;;;16.26;57.34;101474.69;5092265;28;20545;-70
2022/06/03 06:05:17;;;;;;;3.50;2.30;;;;;;;16.33;56.87;101475.63;5093398;28;20061;-67
2022/06/03 06:07:54;;;;;;;3.43;1.97;;;;;;;16.29;58.11;101486.94;5095119;28;20047;-67
2022/06/03 06:10:47;;;;;;;2.17;1.95;;;;;;;16.33;56.92;101486.38;5093873;28;20039;-67
2022/06/03 06:13:22;;;;;;;1.73;1.63;;;;;;;16.41;57.06;101491.69;5093990;28;20425;-70
2022/06/03 06:16:01;;;;;;;3.73;2.23;;;;;;;16.20;57.08;101494.25;5092812;28;20097;-70
2022/06/03 06:18:42;;;;;;;2.30;2.10;;;;;;;15.92;57.68;101488.59;5092758;28;20047;-73
2022/06/03 06:21:25;;;;;;;3.00;2.10;;;;;;;15.98;57.75;101490.56;5092503;28;20402;-77
2022/06/03 06:24:03;;;;;;;3.67;2.10;;;;;;;16.21;58.28;101471.72;5092608;28;20475;-70
2022/06/03 06:27:06;;;;;;;2.20;2.00;;;;;;;16.28;57.87;101477.22;5091981;28;20115;-66
2022/06/03 06:29:56;;;;;;;4.67;2.57;;;;;;;16.56;57.71;101474.75;5092933;28;20054;-70
2022/06/03 06:32:37;;;;;;;5.13;2.07;;;;;;;16.83;55.78;101460.69;5091578;28;20055;-72
2022/06/03 06:35:22;;;;;;;4.43;2.03;;;;;;;16.80;55.61;101474.50;5092192;28;20036;-66
2022/06/03 06:38:07;;;;;;;4.13;2.30;;;;;;;16.60;55.37;101463.44;5092672;28;20059;-73
2022/06/03 06:40:49;;;;;;;2.60;1.80;;;;;;;16.24;57.38;101487.50;5092536;28;20486;-73
2022/06/03 06:43:31;;;;;;;3.03;2.07;;;;;;;16.00;58.15;101487.69;5095182;28;20035;-72
2022/06/03 06:46:14;;;;;;;3.60;1.70;;;;;;;15.77;58.65;101459.00;5092541;28;20169;-74
2022/06/03 06:49:17;;;;;;;4.28;2.20;;;;;;;15.78;59.14;101471.41;5092242;28;20456;-71
2022/06/03 06:51:51;;;;;;;3.88;1.90;;;;;;;15.73;59.56;101457.69;5091195;28;20252;-71
2022/06/03 06:54:35;;;;;;;7.13;2.90;;;;;;;15.62;60.12;101438.47;5080669;28;20040;-68
2022/06/03 06:57:21;;;;;;;3.50;2.27;;;;;;;15.68;59.67;101438.59;5073656;28;20526;-68
2022/06/03 07:00:16;;;;;;;3.07;1.80;;;;;;;15.78;58.81;101427.59;5092499;28;20032;-67
2022/06/03 07:03:07;;;;;;;4.90;2.33;;;;;;;15.90;59.03;101436.91;5092063;28;20040;-69
2022/06/03 07:05:39;;;;;;;5.97;2.17;;;;;;;16.02;57.88;101438.13;5090642;28;20035;-66
2022/06/03 07:08:08;;;;;;;4.10;1.93;;;;;;;15.96;57.88;101446.09;5091711;28;20047;-69
2022/06/03 07:10:39;;;;;;;4.22;2.00;;;;;;;15.75;59.00;101436.03;5091864;28;20036;-66
2022/06/03 07:13:10;;;;;;;2.43;1.80;;;;;;;15.65;59.27;101451.53;5093308;28;20147;-70
2022/06/03 07:15:53;;;;;;;4.03;2.17;;;;;;;15.50;59.15;101446.06;5096108;28;20039;-70
2022/06/03 07:22:07;;;;;;;6.00;2.20;;;;;;;15.57;60.65;101457.75;5096367;28;20123;-72
2022/06/03 07:24:58;;;;;;;4.10;2.40;;;;;;;15.74;59.84;101443.25;5095979;28;20498;-68
2022/06/03 07:27:44;;;;;;;2.93;2.17;;;;;;;16.15;59.21;101450.94;5095354;28;20510;-75
2022/06/03 07:30:09;;;;;;;5.13;2.43;;;;;;;16.68;56.57;101457.97;5087033;28;20040;-70
2022/06/03 07:32:47;;;;;;;3.10;1.80;;;;;;;16.72;56.22;101453.06;5088068;28;20028;-73
2022/06/03 07:35:22;;;;;;;3.47;2.60;;;;;;;16.86;54.94;101454.09;5097506;28;20032;-72
2022/06/03 07:38:33;;;;;;;5.53;2.40;;;;;;;16.94;55.11;101456.69;5095634;28;20031;-71
2022/06/03 07:41:05;;;;;;;8.07;2.40;;;;;;;16.78;55.54;101456.88;5092366;28;20051;-72
2022/06/03 07:43:33;;;;;;;5.10;2.10;;;;;;;16.65;56.46;101452.13;5096336;28;20077;-70
2022/06/03 07:46:04;;;;;;;2.58;2.03;;;;;;;16.38;56.46;101456.25;5095202;28;20039;-70
2022/06/03 07:48:33;;;;;;;4.13;2.63;;;;;;;16.05;57.61;101461.94;5094436;28;20032;-71
2022/06/03 07:51:09;;;;;;;4.97;2.57;;;;;;;15.94;57.63;101448.13;5093825;28;20052;-69
2022/06/03 07:53:44;;;;;;;4.57;2.10;;;;;;;16.26;57.26;101469.34;5094478;28;20032;-70
2022/06/03 07:56:10;;;;;;;2.47;2.10;;;;;;;16.23;56.67;101452.75;5094114;28;20036;-70
2022/06/03 07:58:37;;;;;;;8.80;2.67;;;;;;;16.14;57.20;101454.66;5095090;28;20044;-69
2022/06/03 08:01:20;;;;;;;7.07;3.00;;;;;;;16.00;58.14;101458.97;5094836;28;20035;-71
2022/06/03 08:03:47;;;;;;;3.40;2.50;;;;;;;15.82;57.92;101463.81;5093991;28;20047;-68
2022/06/03 08:06:13;;;;;;;10.73;2.70;;;;;;;15.64;58.83;101453.41;5094504;28;20521;-67
2022/06/03 08:11:31;;;;;;;2.97;2.17;;;;;;;15.69;59.14;101467.13;5090916;28;20035;-68
2022/06/03 08:14:01;;;;;;;4.20;2.30;;;;;;;15.78;59.18;101460.66;5076257;28;20049;-72
2022/06/03 08:16:33;;;;;;;5.03;2.57;;;;;;;15.76;59.14;101467.22;5098327;28;20040;-73
2022/06/03 08:19:21;;;;;;;2.37;2.10;;;;;;;15.72;59.09;101460.56;5095677;28;20039;-64
2022/06/03 08:21:53;;;;;;;4.22;2.30;;;;;;;15.72;59.11;101461.38;5089707;28;20089;-66
2022/06/03 08:24:30;;;;;;;3.93;2.77;;;;;;;15.67;59.09;101468.31;5074715;28;20039;-67
2022/06/03 08:27:12;;;;;;;6.05;2.28;;;;;;;15.69;59.34;101472.50;5077704;28;20032;-70
2022/06/03 08:29:41;;;;;;;4.60;2.67;;;;;;;15.78;58.69;101471.41;5095282;28;20043;-72
2022/06/03 08:32:14;;;;;;;5.77;2.43;;;;;;;15.97;58.73;101469.25;5078788;28;20384;-65
2022/06/03 08:34:46;;;;;;;4.27;2.60;;;;;;;16.27;58.37;101480.91;5084794;28;20040;-71
2022/06/03 08:37:16;;;;;;;3.27;2.13;;;;;;;16.54;56.92;101476.78;5093845;28;20044;-70
2022/06/03 08:39:43;;;;;;;5.20;2.53;;;;;;;16.68;56.05;101478.66;5094868;28;20485;-68
2022/06/03 08:42:39;;;;;;;4.60;2.88;;;;;;;16.59;57.25;101479.75;5093784;28;20028;-71
2022/06/03 08:45:29;;;;;;;4.57;2.67;;;;;;;16.58;57.09;101478.09;5094198;28;20032;-69
2022/06/03 08:47:56;;;;;;;6.33;2.27;;;;;;;16.65;57.29;101468.25;5092895;28;20042;-73
2022/06/03 08:50:32;;;;;;;2.60;2.07;;;;;;;16.71;56.64;101472.91;5075486;28;20483;-66
2022/06/03 08:53:23;;;;;;;2.87;2.10;;;;;;;17.06;56.28;101475.84;5093445;28;20048;-69
2022/06/03 08:55:56;;;;;;;3.27;2.43;;;;;;;17.24;55.85;101481.69;5093127;28;20047;-74
2022/06/03 08:58:41;;;;;;;11.23;3.10;;;;;;;17.58;55.48;101486.41;5093395;28;20092;-71
2022/06/03 09:01:13;;;;;;;4.60;1.70;;;;;;;17.80;53.92;101479.22;5094602;28;20048;-70
2022/06/03 09:03:46;;;;;;;2.67;2.30;;;;;;;17.93;53.75;101480.19;5093147;28;20050;-67
2022/06/03 09:06:18;;;;;;;6.47;2.90;;;;;;;17.98;53.61;101476.09;5093088;28;20406;-74
2022/06/03 09:08:55;;;;;;;3.13;2.20;;;;;;;18.02;52.84;101482.75;5093436;28;20478;-70
2022/06/03 09:11:36;;;;;;;1.97;1.67;;;;;;;18.00;53.08;101476.72;5092089;28;20127;-72
2022/06/03 09:14:08;;;;;;;2.37;2.17;;;;;;;17.99;53.86;101481.28;5092611;28;20064;-69
2022/06/03 09:16:35;;;;;;;3.87;1.70;;;;;;;18.04;53.31;101486.91;5093432;28;20036;-70
2022/06/03 09:19:15;;;;;;;2.73;1.77;;;;;;;17.97;53.42;101480.63;5092933;28;20035;-70
2022/06/03 09:21:44;;;;;;;4.93;2.60;;;;;;;17.85;53.37;101480.31;5092861;28;20072;-70
2022/06/03 09:24:26;;;;;;;6.70;2.30;;;;;;;17.84;52.61;101485.88;5092926;28;20032;-71
2022/06/03 09:26:58;;;;;;;4.37;2.10;;;;;;;17.90;52.90;101468.94;5092611;28;20028;-69
2022/06/03 09:29:25;;;;;;;6.20;2.20;;;;;;;17.85;52.69;101479.47;5093238;28;20032;-74
2022/06/03 09:31:56;;;;;;;7.63;2.53;;;;;;;17.70;53.72;101476.03;5094735;28;20062;-70
2022/06/03 09:34:34;;;;;;;3.27;2.13;;;;;;;17.67;53.03;101479.06;5092694;28;20031;-70
2022/06/03 09:36:59;;;;;;;2.35;1.98;;;;;;;17.71;53.33;101485.78;5091963;28;20032;-68
2022/06/03 09:39:26;;;;;;;4.20;2.13;;;;;;;17.78;52.20;101470.50;5092531;28;20138;-69
2022/06/03 09:41:58;;;;;;;3.90;1.73;;;;;;;17.88;51.91;101479.09;5092994;28;20035;-74
2022/06/03 09:44:26;;;;;;;5.37;2.17;;;;;;;17.97;52.58;101480.63;5093145;28;20032;-71
2022/06/03 09:47:00;;;;;;;3.20;2.00;;;;;;;18.02;51.58;101494.38;5093280;28;20036;-69
2022/06/03 09:49:28;;;;;;;3.90;2.23;;;;;;;18.20;51.26;101494.72;5092284;28;20419;-69
2022/06/03 09:51:57;;;;;;;3.80;2.03;;;;;;;18.48;50.64;101494.72;5092481;28;20040;-70
2022/06/03 09:54:29;;;;;;;11.20;2.00;;;;;;;18.70;49.49;101511.72;5092513;28;20570;-71
2022/06/03 09:57:04;;;;;;;1.73;1.63;;;;;;;18.58;50.11;101505.19;5092659;28;20070;-67
2022/06/03 09:59:34;;;;;;;2.83;2.00;;;;;;;18.51;50.15;101504.31;5092393;28;20036;-69
2022/06/03 10:01:59;;;;;;;3.58;2.45;;;;;;;18.65;50.69;101506.09;5094379;28;20053;-70
2022/06/03 10:04:25;;;;;;;3.20;2.13;;;;;;;18.84;50.82;101510.78;5092217;28;20028;-71
2022/06/03 10:06:52;;;;;;;3.92;2.00;;;;;;;18.87;48.87;101496.06;5091829;28;20061;-66
2022/06/03 10:17:54;;;;;;;7.78;2.38;;;;;;;18.54;52.08;101510.13;5092880;28;20135;-70
2022/06/03 10:20:20;;;;;;;2.58;1.95;;;;;;;18.25;52.95;101500.38;5092620;28;20120;-67
2022/06/03 10:22:48;;;;;;;4.93;2.47;;;;;;;18.24;54.04;101514.88;5092566;28;20044;-76
2022/06/03 10:25:14;;;;;;;10.27;2.63;;;;;;;18.27;54.03;101508.28;5092060;28;20039;-68
2022/06/03 10:27:40;;;;;;;6.97;5.23;;;;;;;18.26;54.35;101522.78;5091765;28;20035;-69
2022/06/03 10:30:06;;;;;;;5.68;4.13;;;;;;;18.16;54.38;101516.88;5091704;28;20405;-70
2022/06/03 10:32:33;;;;;;;6.80;3.40;;;;;;;18.14;54.09;101517.06;5093647;28;20048;-67
2022/06/03 10:35:29;;;;;;;7.70;3.30;;;;;;;18.20;54.11;101524.38;5091680;28;20026;-69
2022/06/03 10:38:03;;;;;;;2.95;2.58;;;;;;;18.13;54.04;101522.66;5090666;28;20036;-72
2022/06/03 10:40:30;;;;;;;4.70;3.20;;;;;;;18.06;54.27;101509.13;5091505;28;20502;-65
2022/06/03 10:42:58;;;;;;;3.75;2.83;;;;;;;18.24;54.19;101509.50;5092296;28;20059;-69
2022/06/03 10:45:28;;;;;;;;;;;;;;;18.35;53.37;101527.00;5092483;28;20035;-72
2022/06/03 10:47:54;;;;;;;8.90;3.20;;;;;;;18.25;54.21;101513.84;5095686;28;19916;-71
2022/06/03 10:50:26;;;;;;;7.50;3.20;;;;;;;18.26;54.49;101523.63;5095651;28;20040;-69
2022/06/03 11:02:14;;;;;;;4.43;2.70;;;;;;;18.54;53.03;101509.31;5064060;28;20033;-74
2022/06/03 11:04:39;;;;;;;7.20;2.93;;;;;;;18.66;52.48;101506.91;5078277;28;20032;-73
2022/06/03 11:07:25;;;;;;;4.20;2.42;;;;;;;18.92;52.23;101500.84;5077432;28;20038;-73
2022/06/03 11:10:05;;;;;;;2.33;2.13;;;;;;;18.95;50.81;101489.66;5096103;28;20024;-72
2022/06/03 11:12:33;;;;;;;2.65;2.45;;;;;;;19.35;49.99;101502.28;5096167;28;20395;-77
2022/06/03 11:15:00;;;;;;;4.93;2.75;;;;;;;19.50;50.15;101516.47;5096032;28;20418;-73
2022/06/03 11:17:32;;;;;;;3.13;2.88;;;;;;;19.34;50.39;101524.91;5100381;28;20031;-74
2022/06/03 11:19:58;;;;;;;2.72;2.50;;;;;;;19.02;50.99;101507.53;5100598;28;20035;-74
2022/06/03 11:22:31;;;;;;;6.57;3.58;;;;;;;18.99;52.32;101501.72;5094950;28;20111;-72
2022/06/03 11:25:11;;;;;;;3.15;2.63;;;;;;;19.02;51.16;101495.91;5095108;28;20128;-70
2022/06/03 11:27:56;;;;;;;4.68;3.17;;;;;;;18.92;50.34;101520.56;5093540;28;20047;-67
2022/06/03 11:30:43;;;;;;;3.92;2.47;;;;;;;19.02;50.39;101512.09;5093528;28;20028;-68
2022/06/03 11:33:17;;;;;;;8.55;2.80;;;;;;;18.99;51.79;101518.75;5095895;28;20031;-63
2022/06/03 11:35:54;;;;;;;6.75;2.53;;;;;;;19.04;51.41;101510.03;5095016;28;20036;-67
2022/06/03 11:38:29;;;;;;;8.02;2.70;;;;;;;18.94;52.21;101514.97;5093028;28;20043;-67
2022/06/03 11:40:59;;;;;;;4.15;2.63;;;;;;;19.14;51.41;101521.31;5073988;28;20497;-68
2022/06/03 11:43:35;;;;;;;2.65;2.42;;;;;;;19.22;51.16;101528.41;5094579;28;20547;-68
2022/06/03 11:46:07;;;;;;;3.38;2.53;;;;;;;19.08;51.85;101525.66;5092714;28;20035;-68
2022/06/03 11:48:39;;;;;;;5.50;3.17;;;;;;;18.98;52.11;101533.28;5091532;28;20032;-67
2022/06/03 11:51:08;;;;;;;2.78;2.30;;;;;;;18.90;52.86;101524.50;5094368;28;20036;-69
2022/06/03 11:53:39;;;;;;;6.03;3.58;;;;;;;18.86;53.13;101530.31;5091453;28;20044;-70
2022/06/03 11:56:08;;;;;;;3.80;2.70;;;;;;;18.75;53.26;101527.31;5094546;28;20561;-68
2022/06/03 11:58:56;;;;;;;5.20;3.15;;;;;;;18.87;54.12;101521.19;5091040;28;20044;-67
2022/06/03 12:01:34;;;;;;;5.10;3.03;;;;;;;18.89;52.50;101529.06;5092277;28;20040;-70
2022/06/03 12:04:15;;;;;;;3.42;2.60;;;;;;;19.00;51.58;101515.00;5092572;28;20494;-67
2022/06/03 12:07:00;;;;;;;5.22;2.83;;;;;;;19.24;51.42;101521.78;5092197;28;20078;-69
2022/06/03 12:10:04;;;;;;;4.03;2.33;;;;;;;19.57;51.12;101524.63;5092898;28;20028;-68
2022/06/03 12:15:48;;;;;;;6.10;3.05;;;;;;;19.99;48.41;101504.56;5091980;28;20040;-66
2022/06/03 12:18:13;;;;;;;4.75;2.83;;;;;;;20.00;49.03;101516.22;5093588;28;20032;-65
2022/06/03 12:20:48;;;;;;;5.95;2.95;;;;;;;19.61;48.86;101516.94;5093831;28;20501;-67
2022/06/03 12:23:13;;;;;;;4.85;3.20;;;;;;;19.49;50.46;101520.22;5093251;28;20032;-69
2022/06/03 12:26:02;;;;;;;4.78;3.20;;;;;;;19.58;50.77;101511.94;5093437;28;20047;-70
2022/06/03 12:28:27;;;;;;;7.00;3.30;;;;;;;19.84;50.18;101514.72;5091911;28;20491;-71
2022/06/03 12:30:54;;;;;;;7.28;2.50;;;;;;;20.00;49.42;101522.44;5092273;28;20077;-73
2022/06/03 12:33:26;;;;;;;11.55;3.78;;;;;;;19.92;48.91;101524.50;5067006;28;20040;-74
2022/06/03 12:36:06;;;;;;;5.35;2.75;;;;;;;19.62;50.04;101518.59;5056893;28;20036;-72
2022/06/03 12:38:43;;;;;;;6.43;2.65;;;;;;;19.15;52.53;101526.53;5074145;28;20056;-72
2022/06/03 12:41:10;;;;;;;4.07;2.97;;;;;;;18.92;53.45;101522.44;5075582;28;20394;-70
2022/06/03 12:43:44;;;;;;;7.13;3.05;;;;;;;18.85;55.99;101517.84;5074767;28;20495;-70
2022/06/03 12:46:34;;;;;;;5.72;2.90;;;;;;;18.86;56.59;101519.50;5072261;28;20124;-72
2022/06/03 12:49:00;;;;;;;8.38;3.60;;;;;;;18.88;55.41;101528.25;5074725;28;20039;-73
2022/06/03 12:51:32;;;;;;;3.65;3.00;;;;;;;18.84;55.62;101537.78;5078468;28;20032;-71
2022/06/03 12:54:14;;;;;;;5.00;3.15;;;;;;;18.90;55.24;101524.50;5073498;28;20032;-73
2022/06/03 12:56:51;;;;;;;4.82;3.10;;;;;;;18.74;55.72;101531.03;5074915;28;20482;-71